Russell Municipal Airport
KRSL : now visible

Airfield :











YOU CAN JOIN US ON...

 
LOGIN :

Register | Disclaimer

   EN    FR    IT 

 









Legend :    VFR   Marginal VFR   IFR   Intensive IFR   Very Intensive IFR
Visi :
Ceiling :
>= 8 km
>= 3000ft
5 to 8 km
1000 to 3000 ft
1500m to 5 km
500 to 1000 ft
800 to 1500m
200 to 500 ft
< 800m
< 200 ft
Symbols :   Thunderstorms  Fog  Heavy snow  Heavy precipitations  Wind > 20 kt






- Airport Elevation : 1862 ft


KRSL - Russell Municipal

CURRENT METAR :
  • 272153Z AUTO 17025G33KT 10SM CLR 17/05 A2956 RMK AO2 PK WND 16037/2109 SLP013 T01670050

EXPIRED METARs :
  • 272053Z AUTO 17025G36KT 10SM CLR 18/02 A2956 RMK AO2 PK WND 17036/2049 SLP012 T01780017 56044
  • 271953Z AUTO 15021G29KT 10SM CLR 14/03 A2960 RMK AO2 PK WND 16029/1949 SLP027 T01440033

TAF KRSL
Valid from the 27 at 19:00 until the 28 at 18:00 UTC


271856Z 2719/2818 17024G34KT P6SM FEW250
FM280200 34016G24KT P6SM FEW200
FM280900 32010KT P6SM FEW200
KZKC FIR / North America



MET'MAP, your aeronautical weather chart ! - Copyright ORBIFLY December 2007 - Disclaimer

ORBIFLY MET'MAP TEAM :

Programming & Development : Alexandra Zaïnal
Concept & original design : Baudouin d'Aumeries
Assistance for programming : Marc-Olivier Méhu
Technical & hardware support : Manuel Goepfert

Contact : metmap@orbifly.com




SOURCES & CREDITS :

   NOAA       Earth
Advisory